sensor_id;sensor_type;location;lat;lon;timestamp;pressure;altitude;pressure_sealevel;temperature;humidity
79368;BME280;68834;53.152;17.962;2023-05-07T00:01:35;101902.34;;;6.28;77.98
79368;BME280;68834;53.152;17.962;2023-05-07T00:04:01;101905.08;;;6.24;78.06
79368;BME280;68834;53.152;17.962;2023-05-07T00:06:30;101904.50;;;6.20;78.08
79368;BME280;68834;53.152;17.962;2023-05-07T00:08:56;101904.44;;;6.15;78.06
79368;BME280;68834;53.152;17.962;2023-05-07T00:11:24;101898.83;;;6.09;77.96
79368;BME280;68834;53.152;17.962;2023-05-07T00:13:50;101899.98;;;6.03;77.93
79368;BME280;68834;53.152;17.962;2023-05-07T00:16:17;101900.07;;;5.96;78.22
79368;BME280;68834;53.152;17.962;2023-05-07T00:18:44;101899.05;;;5.88;78.08
79368;BME280;68834;53.152;17.962;2023-05-07T00:21:11;101897.91;;;5.81;78.19
79368;BME280;68834;53.152;17.962;2023-05-07T00:23:38;101904.10;;;5.75;78.14
79368;BME280;68834;53.152;17.962;2023-05-07T00:26:05;101906.30;;;5.72;78.16
79368;BME280;68834;53.152;17.962;2023-05-07T00:28:31;101905.71;;;5.66;78.05
79368;BME280;68834;53.152;17.962;2023-05-07T00:30:58;101908.06;;;5.62;78.00
79368;BME280;68834;53.152;17.962;2023-05-07T00:33:24;101910.27;;;5.58;78.21
79368;BME280;68834;53.152;17.962;2023-05-07T00:35:53;101911.77;;;5.54;78.20
79368;BME280;68834;53.152;17.962;2023-05-07T00:38:20;101915.14;;;5.48;78.29
79368;BME280;68834;53.152;17.962;2023-05-07T00:40:47;101920.58;;;5.40;78.28
79368;BME280;68834;53.152;17.962;2023-05-07T00:43:14;101918.02;;;5.32;78.32
79368;BME280;68834;53.152;17.962;2023-05-07T00:45:41;101914.14;;;5.27;78.25
79368;BME280;68834;53.152;17.962;2023-05-07T00:48:07;101917.69;;;5.22;78.35
79368;BME280;68834;53.152;17.962;2023-05-07T00:50:35;101921.09;;;5.17;78.25
79368;BME280;68834;53.152;17.962;2023-05-07T00:53:01;101924.55;;;5.17;78.26
79368;BME280;68834;53.152;17.962;2023-05-07T00:55:29;101926.92;;;5.14;78.17
79368;BME280;68834;53.152;17.962;2023-05-07T00:57:56;101926.17;;;5.10;78.23
79368;BME280;68834;53.152;17.962;2023-05-07T01:00:22;101927.59;;;5.02;78.45
79368;BME280;68834;53.152;17.962;2023-05-07T01:02:51;101926.06;;;4.94;78.51
79368;BME280;68834;53.152;17.962;2023-05-07T01:05:19;101930.99;;;4.88;78.40
79368;BME280;68834;53.152;17.962;2023-05-07T01:07:46;101930.36;;;4.82;78.38
79368;BME280;68834;53.152;17.962;2023-05-07T01:10:14;101931.16;;;4.78;78.59
79368;BME280;68834;53.152;17.962;2023-05-07T01:12:41;101931.25;;;4.73;78.37
79368;BME280;68834;53.152;17.962;2023-05-07T01:15:10;101934.08;;;4.67;78.27
79368;BME280;68834;53.152;17.962;2023-05-07T01:17:38;101931.59;;;4.63;78.27
79368;BME280;68834;53.152;17.962;2023-05-07T01:20:08;101929.94;;;4.58;78.33
79368;BME280;68834;53.152;17.962;2023-05-07T01:22:40;101929.80;;;4.51;78.24
79368;BME280;68834;53.152;17.962;2023-05-07T01:25:07;101931.59;;;4.45;78.16
79368;BME280;68834;53.152;17.962;2023-05-07T01:27:35;101938.50;;;4.36;78.37
79368;BME280;68834;53.152;17.962;2023-05-07T01:30:04;101940.74;;;4.26;78.18
79368;BME280;68834;53.152;17.962;2023-05-07T01:32:41;101943.55;;;4.20;78.16
79368;BME280;68834;53.152;17.962;2023-05-07T01:35:11;101945.16;;;4.14;78.37
79368;BME280;68834;53.152;17.962;2023-05-07T01:37:39;101948.35;;;4.10;78.57
79368;BME280;68834;53.152;17.962;2023-05-07T01:40:08;101947.56;;;4.05;78.48
79368;BME280;68834;53.152;17.962;2023-05-07T01:42:35;101945.41;;;4.01;78.65
79368;BME280;68834;53.152;17.962;2023-05-07T01:45:03;101947.57;;;3.97;78.64
79368;BME280;68834;53.152;17.962;2023-05-07T01:47:30;101951.95;;;3.92;78.62
79368;BME280;68834;53.152;17.962;2023-05-07T01:49:57;101956.13;;;3.85;78.89
79368;BME280;68834;53.152;17.962;2023-05-07T01:52:25;101954.55;;;3.76;78.97
79368;BME280;68834;53.152;17.962;2023-05-07T01:54:51;101959.08;;;3.70;79.15
79368;BME280;68834;53.152;17.962;2023-05-07T01:57:18;101956.36;;;3.64;79.13
79368;BME280;68834;53.152;17.962;2023-05-07T01:59:45;101959.23;;;3.61;79.13
79368;BME280;68834;53.152;17.962;2023-05-07T02:02:11;101960.73;;;3.60;79.04
79368;BME280;68834;53.152;17.962;2023-05-07T02:04:39;101958.62;;;3.58;79.08
79368;BME280;68834;53.152;17.962;2023-05-07T02:07:05;101962.74;;;3.57;79.25
79368;BME280;68834;53.152;17.962;2023-05-07T02:09:32;101958.39;;;3.56;79.36
79368;BME280;68834;53.152;17.962;2023-05-07T02:11:59;101960.80;;;3.55;79.51
79368;BME280;68834;53.152;17.962;2023-05-07T02:14:26;101961.59;;;3.51;79.61
79368;BME280;68834;53.152;17.962;2023-05-07T02:16:53;101960.30;;;3.48;79.72
79368;BME280;68834;53.152;17.962;2023-05-07T02:19:19;101958.69;;;3.46;79.83
79368;BME280;68834;53.152;17.962;2023-05-07T02:21:47;101965.48;;;3.41;79.94
79368;BME280;68834;53.152;17.962;2023-05-07T02:24:14;101967.52;;;3.39;79.80
79368;BME280;68834;53.152;17.962;2023-05-07T02:26:41;101971.11;;;3.38;79.68
79368;BME280;68834;53.152;17.962;2023-05-07T02:29:08;101976.42;;;3.36;79.69
79368;BME280;68834;53.152;17.962;2023-05-07T02:31:36;101974.85;;;3.36;79.64
79368;BME280;68834;53.152;17.962;2023-05-07T02:34:03;101970.48;;;3.33;79.48
79368;BME280;68834;53.152;17.962;2023-05-07T02:36:30;101973.71;;;3.31;79.63
79368;BME280;68834;53.152;17.962;2023-05-07T02:39:04;101977.59;;;3.27;79.69
79368;BME280;68834;53.152;17.962;2023-05-07T02:41:31;101976.11;;;3.23;79.75
79368;BME280;68834;53.152;17.962;2023-05-07T02:43:57;101980.66;;;3.18;79.78
79368;BME280;68834;53.152;17.962;2023-05-07T02:46:24;101977.80;;;3.15;80.06
79368;BME280;68834;53.152;17.962;2023-05-07T02:48:57;101981.38;;;3.13;79.90
79368;BME280;68834;53.152;17.962;2023-05-07T02:51:25;101979.48;;;3.13;79.89
79368;BME280;68834;53.152;17.962;2023-05-07T02:53:52;101973.94;;;3.13;79.91
79368;BME280;68834;53.152;17.962;2023-05-07T02:56:21;101975.14;;;3.12;79.87
79368;BME280;68834;53.152;17.962;2023-05-07T02:58:48;101974.60;;;3.11;79.89
79368;BME280;68834;53.152;17.962;2023-05-07T03:01:14;101974.37;;;3.09;79.93
79368;BME280;68834;53.152;17.962;2023-05-07T03:03:54;101978.80;;;3.07;79.78
79368;BME280;68834;53.152;17.962;2023-05-07T03:06:21;101980.81;;;3.05;79.96
79368;BME280;68834;53.152;17.962;2023-05-07T03:08:47;101983.47;;;3.00;79.94
79368;BME280;68834;53.152;17.962;2023-05-07T03:11:14;101991.82;;;2.96;79.89
79368;BME280;68834;53.152;17.962;2023-05-07T03:13:41;101992.29;;;2.94;79.97
79368;BME280;68834;53.152;17.962;2023-05-07T03:16:08;101992.81;;;2.94;79.85
79368;BME280;68834;53.152;17.962;2023-05-07T03:18:34;101996.31;;;2.96;79.86
79368;BME280;68834;53.152;17.962;2023-05-07T03:21:01;101996.48;;;2.97;79.75
79368;BME280;68834;53.152;17.962;2023-05-07T03:23:28;102002.33;;;2.95;79.83
79368;BME280;68834;53.152;17.962;2023-05-07T03:25:54;102003.32;;;2.93;79.69
79368;BME280;68834;53.152;17.962;2023-05-07T03:28:21;102003.50;;;2.94;79.71
79368;BME280;68834;53.152;17.962;2023-05-07T03:30:52;102003.30;;;2.92;79.41
79368;BME280;68834;53.152;17.962;2023-05-07T03:33:19;102006.52;;;2.90;79.47
79368;BME280;68834;53.152;17.962;2023-05-07T03:35:46;102012.84;;;2.88;79.35
79368;BME280;68834;53.152;17.962;2023-05-07T03:38:14;102011.73;;;2.85;79.26
79368;BME280;68834;53.152;17.962;2023-05-07T03:40:41;102017.55;;;2.83;79.39
79368;BME280;68834;53.152;17.962;2023-05-07T03:43:07;102026.16;;;2.89;79.32
79368;BME280;68834;53.152;17.962;2023-05-07T03:45:36;102027.00;;;2.88;79.31
79368;BME280;68834;53.152;17.962;2023-05-07T03:48:28;102025.46;;;2.82;79.47
79368;BME280;68834;53.152;17.962;2023-05-07T03:50:57;102027.20;;;2.76;79.33
79368;BME280;68834;53.152;17.962;2023-05-07T03:53:25;102031.46;;;2.74;79.46
79368;BME280;68834;53.152;17.962;2023-05-07T03:55:51;102031.30;;;2.74;79.33
79368;BME280;68834;53.152;17.962;2023-05-07T03:58:18;102037.52;;;2.74;79.53
79368;BME280;68834;53.152;17.962;2023-05-07T04:00:45;102039.32;;;2.77;79.45
79368;BME280;68834;53.152;17.962;2023-05-07T04:03:16;102042.40;;;2.82;79.48
79368;BME280;68834;53.152;17.962;2023-05-07T04:05:43;102037.38;;;2.88;79.60
79368;BME280;68834;53.152;17.962;2023-05-07T04:08:10;102043.06;;;2.94;79.54
79368;BME280;68834;53.152;17.962;2023-05-07T04:10:39;102046.02;;;3.01;79.78
79368;BME280;68834;53.152;17.962;2023-05-07T04:13:10;102045.70;;;3.09;79.82
79368;BME280;68834;53.152;17.962;2023-05-07T04:15:36;102051.44;;;3.17;79.79
79368;BME280;68834;53.152;17.962;2023-05-07T04:18:04;102049.91;;;3.24;80.12
79368;BME280;68834;53.152;17.962;2023-05-07T04:20:34;102051.83;;;3.32;80.01
79368;BME280;68834;53.152;17.962;2023-05-07T04:23:02;102054.02;;;3.43;80.02
79368;BME280;68834;53.152;17.962;2023-05-07T04:25:29;102053.92;;;3.53;79.98
79368;BME280;68834;53.152;17.962;2023-05-07T04:28:02;102058.39;;;3.65;79.95
79368;BME280;68834;53.152;17.962;2023-05-07T04:30:29;102055.01;;;3.76;79.92
79368;BME280;68834;53.152;17.962;2023-05-07T04:32:57;102058.50;;;3.85;79.81
79368;BME280;68834;53.152;17.962;2023-05-07T04:35:23;102057.13;;;3.92;79.79
79368;BME280;68834;53.152;17.962;2023-05-07T04:37:50;102062.19;;;4.02;79.87
79368;BME280;68834;53.152;17.962;2023-05-07T04:40:17;102066.23;;;4.12;79.67
79368;BME280;68834;53.152;17.962;2023-05-07T04:42:44;102066.13;;;4.23;79.87
79368;BME280;68834;53.152;17.962;2023-05-07T04:45:12;102076.40;;;4.34;79.67
79368;BME280;68834;53.152;17.962;2023-05-07T04:47:39;102077.34;;;4.45;79.61
79368;BME280;68834;53.152;17.962;2023-05-07T04:50:07;102079.89;;;4.58;79.56
79368;BME280;68834;53.152;17.962;2023-05-07T04:52:35;102080.15;;;4.71;79.38
79368;BME280;68834;53.152;17.962;2023-05-07T04:55:02;102081.77;;;4.82;79.25
79368;BME280;68834;53.152;17.962;2023-05-07T04:57:32;102085.94;;;4.92;79.45
79368;BME280;68834;53.152;17.962;2023-05-07T04:59:59;102083.70;;;5.02;79.30
79368;BME280;68834;53.152;17.962;2023-05-07T05:02:26;102080.77;;;5.11;79.38
79368;BME280;68834;53.152;17.962;2023-05-07T05:04:52;102084.06;;;5.21;79.46
79368;BME280;68834;53.152;17.962;2023-05-07T05:07:19;102088.11;;;5.33;79.42
79368;BME280;68834;53.152;17.962;2023-05-07T05:09:46;102085.55;;;5.45;79.02
79368;BME280;68834;53.152;17.962;2023-05-07T05:12:13;102089.39;;;5.56;78.92
79368;BME280;68834;53.152;17.962;2023-05-07T05:14:39;102093.09;;;5.70;79.06
79368;BME280;68834;53.152;17.962;2023-05-07T05:17:07;102088.79;;;5.83;78.60
79368;BME280;68834;53.152;17.962;2023-05-07T05:19:36;102097.14;;;5.94;78.68
79368;BME280;68834;53.152;17.962;2023-05-07T05:22:02;102097.48;;;6.05;78.36
79368;BME280;68834;53.152;17.962;2023-05-07T05:24:31;102098.86;;;6.15;78.49
79368;BME280;68834;53.152;17.962;2023-05-07T05:26:58;102099.89;;;6.25;78.31
79368;BME280;68834;53.152;17.962;2023-05-07T05:29:29;102104.91;;;6.37;78.42
79368;BME280;68834;53.152;17.962;2023-05-07T05:31:58;102105.45;;;6.50;78.30
79368;BME280;68834;53.152;17.962;2023-05-07T05:34:24;102103.21;;;6.64;78.27
79368;BME280;68834;53.152;17.962;2023-05-07T05:36:52;102103.59;;;6.80;78.23
79368;BME280;68834;53.152;17.962;2023-05-07T05:39:19;102106.38;;;6.95;78.00
79368;BME280;68834;53.152;17.962;2023-05-07T05:41:45;102107.23;;;7.08;77.98
79368;BME280;68834;53.152;17.962;2023-05-07T05:44:13;102103.91;;;7.23;77.77
79368;BME280;68834;53.152;17.962;2023-05-07T05:46:42;102096.73;;;7.35;77.42
79368;BME280;68834;53.152;17.962;2023-05-07T05:49:08;102100.66;;;7.46;77.38
79368;BME280;68834;53.152;17.962;2023-05-07T05:51:35;102104.27;;;7.60;76.98
79368;BME280;68834;53.152;17.962;2023-05-07T05:54:02;102102.29;;;7.73;76.97
79368;BME280;68834;53.152;17.962;2023-05-07T05:56:29;102103.63;;;7.86;76.72
79368;BME280;68834;53.152;17.962;2023-05-07T05:58:56;102103.74;;;8.00;76.88
79368;BME280;68834;53.152;17.962;2023-05-07T06:01:22;102110.11;;;8.14;76.12
79368;BME280;68834;53.152;17.962;2023-05-07T06:03:50;102107.91;;;8.25;76.05
79368;BME280;68834;53.152;17.962;2023-05-07T06:06:17;102110.98;;;8.38;76.08
79368;BME280;68834;53.152;17.962;2023-05-07T06:08:44;102108.98;;;8.50;75.33
79368;BME280;68834;53.152;17.962;2023-05-07T06:11:12;102107.13;;;8.61;75.53
79368;BME280;68834;53.152;17.962;2023-05-07T06:13:39;102106.63;;;8.70;75.00
79368;BME280;68834;53.152;17.962;2023-05-07T06:16:06;102110.67;;;8.77;74.41
79368;BME280;68834;53.152;17.962;2023-05-07T06:18:33;102105.48;;;8.86;74.07
79368;BME280;68834;53.152;17.962;2023-05-07T06:21:02;102108.48;;;8.98;73.29
79368;BME280;68834;53.152;17.962;2023-05-07T06:23:30;102108.02;;;9.13;73.66
79368;BME280;68834;53.152;17.962;2023-05-07T06:25:57;102107.89;;;9.28;73.17
79368;BME280;68834;53.152;17.962;2023-05-07T06:28:26;102110.19;;;9.44;73.19
79368;BME280;68834;53.152;17.962;2023-05-07T06:30:54;102109.16;;;9.58;73.11
79368;BME280;68834;53.152;17.962;2023-05-07T06:33:21;102112.67;;;9.74;72.83
79368;BME280;68834;53.152;17.962;2023-05-07T06:35:47;102114.06;;;9.89;71.56
79368;BME280;68834;53.152;17.962;2023-05-07T06:38:14;102115.81;;;9.95;70.33
79368;BME280;68834;53.152;17.962;2023-05-07T06:40:41;102113.52;;;10.02;70.02
79368;BME280;68834;53.152;17.962;2023-05-07T06:43:08;102115.96;;;10.12;69.91
79368;BME280;68834;53.152;17.962;2023-05-07T06:45:41;102117.52;;;10.23;68.68
79368;BME280;68834;53.152;17.962;2023-05-07T06:48:09;102117.38;;;10.30;69.07
79368;BME280;68834;53.152;17.962;2023-05-07T06:50:44;102116.66;;;10.42;68.77
79368;BME280;68834;53.152;17.962;2023-05-07T06:53:11;102121.89;;;10.49;66.12
79368;BME280;68834;53.152;17.962;2023-05-07T06:55:38;102120.81;;;10.56;65.84
79368;BME280;68834;53.152;17.962;2023-05-07T06:58:05;102119.39;;;10.67;66.06
79368;BME280;68834;53.152;17.962;2023-05-07T07:00:32;102121.98;;;10.76;66.46
79368;BME280;68834;53.152;17.962;2023-05-07T07:02:59;102129.81;;;10.86;63.61
79368;BME280;68834;53.152;17.962;2023-05-07T07:05:27;102131.91;;;10.82;62.91
79368;BME280;68834;53.152;17.962;2023-05-07T07:07:54;102138.39;;;10.86;64.42
79368;BME280;68834;53.152;17.962;2023-05-07T07:10:22;102136.92;;;11.00;65.26
79368;BME280;68834;53.152;17.962;2023-05-07T07:12:49;102134.58;;;11.16;64.44
79368;BME280;68834;53.152;17.962;2023-05-07T07:15:16;102137.30;;;11.29;64.06
79368;BME280;68834;53.152;17.962;2023-05-07T07:17:43;102130.05;;;11.44;64.12
79368;BME280;68834;53.152;17.962;2023-05-07T07:20:10;102129.58;;;11.61;62.24
79368;BME280;68834;53.152;17.962;2023-05-07T07:22:37;102128.63;;;11.71;62.08
79368;BME280;68834;53.152;17.962;2023-05-07T07:25:05;102128.56;;;11.80;59.89
79368;BME280;68834;53.152;17.962;2023-05-07T07:27:31;102131.08;;;11.98;60.76
79368;BME280;68834;53.152;17.962;2023-05-07T07:29:58;102130.33;;;12.22;60.74
79368;BME280;68834;53.152;17.962;2023-05-07T07:32:25;102133.23;;;12.48;59.31
79368;BME280;68834;53.152;17.962;2023-05-07T07:34:54;102134.02;;;12.71;59.28
79368;BME280;68834;53.152;17.962;2023-05-07T07:37:20;102134.23;;;12.98;58.73
79368;BME280;68834;53.152;17.962;2023-05-07T07:39:47;102135.64;;;13.26;58.63
79368;BME280;68834;53.152;17.962;2023-05-07T07:42:13;102131.64;;;13.49;55.18
79368;BME280;68834;53.152;17.962;2023-05-07T07:44:40;102135.45;;;13.52;52.14
79368;BME280;68834;53.152;17.962;2023-05-07T07:47:08;102134.70;;;13.55;52.16
79368;BME280;68834;53.152;17.962;2023-05-07T07:49:35;102139.09;;;13.78;52.07
79368;BME280;68834;53.152;17.962;2023-05-07T07:52:04;102142.04;;;13.92;47.34
79368;BME280;68834;53.152;17.962;2023-05-07T07:54:31;102142.75;;;13.90;44.40
79368;BME280;68834;53.152;17.962;2023-05-07T07:56:59;102139.06;;;14.02;47.35
79368;BME280;68834;53.152;17.962;2023-05-07T07:59:28;102140.83;;;14.11;42.24
79368;BME280;68834;53.152;17.962;2023-05-07T08:01:54;102141.72;;;14.10;40.43
79368;BME280;68834;53.152;17.962;2023-05-07T08:04:23;102141.75;;;14.09;41.21
79368;BME280;68834;53.152;17.962;2023-05-07T08:06:50;102140.81;;;14.12;39.34
79368;BME280;68834;53.152;17.962;2023-05-07T08:09:17;102144.18;;;14.10;39.11
79368;BME280;68834;53.152;17.962;2023-05-07T08:11:44;102144.27;;;14.15;39.91
79368;BME280;68834;53.152;17.962;2023-05-07T08:14:11;102146.84;;;14.30;40.54
79368;BME280;68834;53.152;17.962;2023-05-07T08:16:38;102149.81;;;14.50;39.88
79368;BME280;68834;53.152;17.962;2023-05-07T08:19:05;102143.07;;;14.64;39.23
79368;BME280;68834;53.152;17.962;2023-05-07T08:21:32;102146.78;;;14.63;37.89
79368;BME280;68834;53.152;17.962;2023-05-07T08:23:59;102144.04;;;14.69;38.30
79368;BME280;68834;53.152;17.962;2023-05-07T08:26:25;102146.44;;;14.80;38.85
79368;BME280;68834;53.152;17.962;2023-05-07T08:28:52;102143.88;;;14.93;38.19
79368;BME280;68834;53.152;17.962;2023-05-07T08:31:19;102146.75;;;15.16;39.29
79368;BME280;68834;53.152;17.962;2023-05-07T08:33:45;102144.39;;;15.51;40.40
79368;BME280;68834;53.152;17.962;2023-05-07T08:36:12;102139.15;;;15.94;40.28
79368;BME280;68834;53.152;17.962;2023-05-07T08:38:39;102140.28;;;16.25;39.07
79368;BME280;68834;53.152;17.962;2023-05-07T08:41:12;102144.48;;;16.59;39.90
79368;BME280;68834;53.152;17.962;2023-05-07T08:43:40;102141.85;;;16.92;38.53
79368;BME280;68834;53.152;17.962;2023-05-07T08:46:09;102147.83;;;17.17;37.96
79368;BME280;68834;53.152;17.962;2023-05-07T08:48:37;102151.66;;;17.35;35.95
79368;BME280;68834;53.152;17.962;2023-05-07T08:51:12;102148.00;;;17.51;36.79
79368;BME280;68834;53.152;17.962;2023-05-07T08:53:42;102147.83;;;17.74;36.27
79368;BME280;68834;53.152;17.962;2023-05-07T08:56:11;102143.86;;;17.98;35.41
79368;BME280;68834;53.152;17.962;2023-05-07T08:58:40;102151.30;;;18.13;35.49
79368;BME280;68834;53.152;17.962;2023-05-07T09:01:08;102151.95;;;18.25;34.81
79368;BME280;68834;53.152;17.962;2023-05-07T09:03:37;102149.68;;;18.44;35.42
79368;BME280;68834;53.152;17.962;2023-05-07T09:06:05;102153.05;;;18.54;31.87
79368;BME280;68834;53.152;17.962;2023-05-07T09:08:33;102156.23;;;18.24;32.11
79368;BME280;68834;53.152;17.962;2023-05-07T09:11:01;102157.48;;;18.29;33.50
79368;BME280;68834;53.152;17.962;2023-05-07T09:13:29;102155.07;;;18.42;33.94
79368;BME280;68834;53.152;17.962;2023-05-07T09:15:56;102156.81;;;18.38;30.02
79368;BME280;68834;53.152;17.962;2023-05-07T09:18:24;102155.67;;;18.10;30.34
79368;BME280;68834;53.152;17.962;2023-05-07T09:20:52;102160.98;;;17.71;29.73
79368;BME280;68834;53.152;17.962;2023-05-07T09:23:20;102155.21;;;17.35;29.60
79368;BME280;68834;53.152;17.962;2023-05-07T09:25:47;102155.45;;;17.22;31.06
79368;BME280;68834;53.152;17.962;2023-05-07T09:28:19;102152.08;;;17.33;32.10
79368;BME280;68834;53.152;17.962;2023-05-07T09:30:46;102151.95;;;17.55;30.64
79368;BME280;68834;53.152;17.962;2023-05-07T09:33:13;102154.23;;;17.44;30.13
79368;BME280;68834;53.152;17.962;2023-05-07T09:35:41;102152.26;;;17.22;29.89
79368;BME280;68834;53.152;17.962;2023-05-07T09:38:12;102162.02;;;17.15;30.43
79368;BME280;68834;53.152;17.962;2023-05-07T09:40:39;102161.78;;;17.16;30.44
79368;BME280;68834;53.152;17.962;2023-05-07T09:43:10;102160.89;;;17.17;29.63
79368;BME280;68834;53.152;17.962;2023-05-07T09:45:39;102159.90;;;17.26;30.34
79368;BME280;68834;53.152;17.962;2023-05-07T09:48:06;102156.50;;;17.39;30.48
79368;BME280;68834;53.152;17.962;2023-05-07T09:50:36;102156.47;;;17.69;31.44
79368;BME280;68834;53.152;17.962;2023-05-07T09:53:09;102161.32;;;17.94;30.18
79368;BME280;68834;53.152;17.962;2023-05-07T09:55:37;102169.34;;;17.98;29.53
79368;BME280;68834;53.152;17.962;2023-05-07T09:58:06;102166.35;;;18.08;30.55
79368;BME280;68834;53.152;17.962;2023-05-07T10:00:33;102169.99;;;18.36;30.16
79368;BME280;68834;53.152;17.962;2023-05-07T10:03:05;102173.59;;;18.54;30.32
79368;BME280;68834;53.152;17.962;2023-05-07T10:05:39;102177.48;;;18.69;28.56
79368;BME280;68834;53.152;17.962;2023-05-07T10:08:07;102177.09;;;18.81;29.11
79368;BME280;68834;53.152;17.962;2023-05-07T10:10:36;102180.19;;;19.13;28.43
79368;BME280;68834;53.152;17.962;2023-05-07T10:13:05;102180.89;;;19.08;27.74
79368;BME280;68834;53.152;17.962;2023-05-07T10:15:38;102175.59;;;18.98;28.25
79368;BME280;68834;53.152;17.962;2023-05-07T10:18:06;102176.73;;;19.00;28.97
79368;BME280;68834;53.152;17.962;2023-05-07T10:20:36;102176.78;;;19.22;29.80
79368;BME280;68834;53.152;17.962;2023-05-07T10:23:04;102178.95;;;19.63;29.17
79368;BME280;68834;53.152;17.962;2023-05-07T10:25:38;102172.89;;;19.82;28.04
79368;BME280;68834;53.152;17.962;2023-05-07T10:28:11;102167.16;;;19.69;28.05
79368;BME280;68834;53.152;17.962;2023-05-07T10:30:48;102175.70;;;19.59;28.58
79368;BME280;68834;53.152;17.962;2023-05-07T10:33:25;102174.15;;;19.63;28.13
79368;BME280;68834;53.152;17.962;2023-05-07T10:35:57;102174.62;;;19.83;28.98
79368;BME280;68834;53.152;17.962;2023-05-07T10:38:27;102175.93;;;20.11;28.48
79368;BME280;68834;53.152;17.962;2023-05-07T10:40:54;102169.96;;;20.42;27.90
79368;BME280;68834;53.152;17.962;2023-05-07T10:43:21;102173.89;;;20.26;25.57
79368;BME280;68834;53.152;17.962;2023-05-07T10:46:11;102175.02;;;19.90;26.35
79368;BME280;68834;53.152;17.962;2023-05-07T10:54:42;102167.14;;;19.96;27.49
79368;BME280;68834;53.152;17.962;2023-05-07T10:57:36;102167.64;;;20.10;27.27
79368;BME280;68834;53.152;17.962;2023-05-07T11:05:29;102174.70;;;20.60;27.78
79368;BME280;68834;53.152;17.962;2023-05-07T11:08:04;102175.05;;;20.28;27.78
79368;BME280;68834;53.152;17.962;2023-05-07T11:10:54;102178.67;;;19.88;27.65
79368;BME280;68834;53.152;17.962;2023-05-07T11:13:45;102182.93;;;19.75;28.32
79368;BME280;68834;53.152;17.962;2023-05-07T11:16:25;102180.61;;;20.01;27.50
79368;BME280;68834;53.152;17.962;2023-05-07T11:19:03;102184.55;;;19.69;27.70
79368;BME280;68834;53.152;17.962;2023-05-07T11:21:41;102184.13;;;20.10;27.29
79368;BME280;68834;53.152;17.962;2023-05-07T11:24:15;102187.98;;;20.07;27.57
79368;BME280;68834;53.152;17.962;2023-05-07T11:26:50;102184.17;;;20.91;27.10
79368;BME280;68834;53.152;17.962;2023-05-07T11:29:19;102183.20;;;22.16;26.12
79368;BME280;68834;53.152;17.962;2023-05-07T11:31:51;102171.58;;;23.60;24.56
79368;BME280;68834;53.152;17.962;2023-05-07T11:34:23;102176.35;;;23.19;24.50
79368;BME280;68834;53.152;17.962;2023-05-07T11:36:50;102181.30;;;22.67;24.47
79368;BME280;68834;53.152;17.962;2023-05-07T11:39:30;102179.56;;;22.96;23.98
79368;BME280;68834;53.152;17.962;2023-05-07T11:42:02;102170.91;;;24.21;23.56
79368;BME280;68834;53.152;17.962;2023-05-07T11:44:42;102169.79;;;23.88;24.14
79368;BME280;68834;53.152;17.962;2023-05-07T11:47:10;102176.21;;;23.31;24.24
79368;BME280;68834;53.152;17.962;2023-05-07T11:49:37;102178.13;;;23.35;23.49
79368;BME280;68834;53.152;17.962;2023-05-07T11:52:04;102173.80;;;24.73;23.29
79368;BME280;68834;53.152;17.962;2023-05-07T11:54:35;102170.27;;;26.71;22.53
79368;BME280;68834;53.152;17.962;2023-05-07T11:57:03;102168.29;;;28.39;20.01
79368;BME280;68834;53.152;17.962;2023-05-07T11:59:30;102170.66;;;28.29;19.18
79368;BME280;68834;53.152;17.962;2023-05-07T12:01:57;102176.50;;;27.37;18.83
79368;BME280;68834;53.152;17.962;2023-05-07T12:04:24;102182.10;;;27.09;19.52
79368;BME280;68834;53.152;17.962;2023-05-07T12:06:54;102183.11;;;27.72;20.00
79368;BME280;68834;53.152;17.962;2023-05-07T12:09:22;102186.29;;;27.36;19.12
79368;BME280;68834;53.152;17.962;2023-05-07T12:11:48;102186.12;;;26.39;19.46
79368;BME280;68834;53.152;17.962;2023-05-07T12:14:15;102185.35;;;25.26;20.45
79368;BME280;68834;53.152;17.962;2023-05-07T12:16:43;102180.17;;;25.81;21.28
79368;BME280;68834;53.152;17.962;2023-05-07T12:19:11;102184.02;;;25.13;20.00
79368;BME280;68834;53.152;17.962;2023-05-07T12:21:41;102191.14;;;24.11;20.81
79368;BME280;68834;53.152;17.962;2023-05-07T12:24:08;102187.85;;;25.23;20.83
79368;BME280;68834;53.152;17.962;2023-05-07T12:26:38;102180.90;;;26.32;19.37
79368;BME280;68834;53.152;17.962;2023-05-07T12:29:05;102180.85;;;26.86;19.93
79368;BME280;68834;53.152;17.962;2023-05-07T12:31:32;102178.80;;;26.95;18.97
79368;BME280;68834;53.152;17.962;2023-05-07T12:33:58;102174.60;;;28.29;18.07
79368;BME280;68834;53.152;17.962;2023-05-07T12:36:25;102172.98;;;29.05;15.94
79368;BME280;68834;53.152;17.962;2023-05-07T12:38:54;102176.38;;;29.26;16.02
79368;BME280;68834;53.152;17.962;2023-05-07T12:41:20;102178.61;;;29.73;14.74
79368;BME280;68834;53.152;17.962;2023-05-07T12:43:56;102174.09;;;29.90;14.65
79368;BME280;68834;53.152;17.962;2023-05-07T12:46:22;102180.84;;;29.96;14.50
79368;BME280;68834;53.152;17.962;2023-05-07T12:48:50;102177.10;;;29.85;14.68
79368;BME280;68834;53.152;17.962;2023-05-07T12:51:16;102174.44;;;30.10;15.10
79368;BME280;68834;53.152;17.962;2023-05-07T12:53:45;102173.20;;;30.52;14.50
79368;BME280;68834;53.152;17.962;2023-05-07T12:56:11;102178.84;;;30.32;14.56
79368;BME280;68834;53.152;17.962;2023-05-07T12:58:38;102179.25;;;29.67;14.61
79368;BME280;68834;53.152;17.962;2023-05-07T13:01:06;102182.99;;;28.30;15.49
79368;BME280;68834;53.152;17.962;2023-05-07T13:03:35;102177.34;;;28.39;16.16